createdAt,value
2019-03-19T00:00:27.863Z,97.70
2019-03-19T00:02:56.889Z,97.80
2019-03-19T00:05:25.815Z,98.00
2019-03-19T00:07:54.756Z,98.00
2019-03-19T00:10:23.599Z,98.00
2019-03-19T00:12:52.504Z,98.10
2019-03-19T00:15:21.397Z,98.10
2019-03-19T00:17:50.248Z,98.20
2019-03-19T00:20:19.121Z,98.20
2019-03-19T00:22:47.951Z,98.20
2019-03-19T00:25:16.853Z,98.10
2019-03-19T00:27:45.730Z,98.20
2019-03-19T00:30:14.986Z,98.40
2019-03-19T00:32:43.803Z,98.50
2019-03-19T00:35:13.320Z,98.40
2019-03-19T00:37:42.668Z,98.50
2019-03-19T00:40:11.741Z,98.60
2019-03-19T00:42:40.693Z,98.50
2019-03-19T00:45:09.666Z,98.60
2019-03-19T00:47:38.558Z,98.50
2019-03-19T00:50:08.010Z,98.60
2019-03-19T00:52:36.849Z,98.80
2019-03-19T00:55:05.805Z,98.90
2019-03-19T00:57:34.722Z,99.00
2019-03-19T01:00:03.602Z,99.00
2019-03-19T01:02:32.406Z,99.20
2019-03-19T01:05:01.303Z,99.20
2019-03-19T01:07:30.192Z,99.60
2019-03-19T01:09:59.026Z,99.50
2019-03-19T01:12:27.822Z,99.50
2019-03-19T01:14:56.686Z,99.60
2019-03-19T01:17:25.577Z,99.70
2019-03-19T01:19:54.428Z,99.80
2019-03-19T01:22:23.199Z,99.80
2019-03-19T01:24:52.929Z,99.70
2019-03-19T01:27:21.827Z,99.80
2019-03-19T01:29:50.603Z,99.90
2019-03-19T01:32:19.479Z,99.90
2019-03-19T01:34:48.795Z,99.90
2019-03-19T01:37:18.044Z,99.90
2019-03-19T01:39:46.805Z,99.80
2019-03-19T01:42:34.815Z,99.90
2019-03-19T01:45:05.421Z,99.90
2019-03-19T01:47:34.213Z,99.80
2019-03-19T01:50:03.101Z,99.70
2019-03-19T01:52:31.906Z,99.80
2019-03-19T01:55:00.699Z,99.80
2019-03-19T01:57:29.859Z,99.80
2019-03-19T01:59:58.643Z,99.90
2019-03-19T02:02:27.406Z,99.90
2019-03-19T02:04:56.274Z,99.90
2019-03-19T02:07:25.058Z,99.90
2019-03-19T02:09:53.834Z,99.90
2019-03-19T02:12:23.907Z,99.90
2019-03-19T02:14:52.691Z,99.90
2019-03-19T02:17:21.599Z,99.90
2019-03-19T02:19:50.818Z,99.90
2019-03-19T02:22:19.682Z,99.90
2019-03-19T02:24:48.715Z,99.90
2019-03-19T02:27:17.550Z,99.90
2019-03-19T02:29:46.638Z,99.90
2019-03-19T02:32:15.412Z,99.90
2019-03-19T02:34:44.790Z,99.90
2019-03-19T02:37:13.925Z,99.90
2019-03-19T02:39:42.729Z,99.90
2019-03-19T02:42:11.547Z,99.90
2019-03-19T02:44:40.350Z,99.90
2019-03-19T02:47:09.323Z,99.90
2019-03-19T02:49:38.127Z,99.90
2019-03-19T02:52:06.918Z,99.90
2019-03-19T02:54:36.058Z,99.90
2019-03-19T02:57:04.950Z,99.80
2019-03-19T02:59:34.020Z,99.70
2019-03-19T03:02:03.035Z,99.70
2019-03-19T03:04:31.865Z,99.70
2019-03-19T03:07:00.970Z,99.70
2019-03-19T03:09:30.422Z,99.70
2019-03-19T03:11:59.504Z,99.80
2019-03-19T03:14:28.317Z,99.90
2019-03-19T03:16:57.114Z,99.90
2019-03-19T03:19:25.916Z,99.90
2019-03-19T03:21:54.764Z,99.90
2019-03-19T03:24:23.555Z,99.90
2019-03-19T03:26:52.464Z,99.90
2019-03-19T03:29:21.565Z,99.90
2019-03-19T03:31:50.327Z,99.90
2019-03-19T03:34:19.873Z,99.80
2019-03-19T03:36:48.649Z,99.90
2019-03-19T03:39:17.491Z,99.80
2019-03-19T03:41:46.397Z,99.90
2019-03-19T03:44:15.277Z,99.80
2019-03-19T03:46:44.129Z,99.80
2019-03-19T03:49:12.992Z,99.80
2019-03-19T03:51:41.775Z,99.90
2019-03-19T03:54:10.584Z,99.90
2019-03-19T03:56:39.417Z,99.90
2019-03-19T03:59:08.199Z,99.90
2019-03-19T04:01:37.236Z,99.90
2019-03-19T04:04:06.134Z,99.90
2019-03-19T04:06:35.018Z,99.90
2019-03-19T04:09:08.877Z,99.90
2019-03-19T04:11:35.896Z,99.90
2019-03-19T04:14:04.836Z,99.90
2019-03-19T04:16:33.631Z,99.90
2019-03-19T04:19:02.416Z,99.90
2019-03-19T04:21:31.536Z,99.90
2019-03-19T04:24:00.488Z,99.90
2019-03-19T04:26:29.390Z,99.90
2019-03-19T04:28:58.264Z,99.90
2019-03-19T04:31:27.276Z,99.90
2019-03-19T04:33:56.622Z,99.90
2019-03-19T04:36:25.408Z,99.90
2019-03-19T04:38:54.205Z,99.90
2019-03-19T04:41:23.095Z,99.90
2019-03-19T04:43:52.960Z,99.90
2019-03-19T04:46:21.815Z,99.90
2019-03-19T04:48:50.774Z,99.90
2019-03-19T04:51:19.547Z,99.90
2019-03-19T04:53:48.335Z,99.90
2019-03-19T04:56:17.110Z,99.90
2019-03-19T04:58:45.916Z,99.90
2019-03-19T05:01:14.707Z,99.90
2019-03-19T05:03:43.847Z,99.90
2019-03-19T05:06:12.707Z,99.90
2019-03-19T05:08:41.472Z,99.90
2019-03-19T05:11:10.268Z,99.90
2019-03-19T05:13:39.143Z,99.90
2019-03-19T05:16:08.319Z,99.90
2019-03-19T05:18:37.409Z,99.90
2019-03-19T05:21:06.203Z,99.90
2019-03-19T05:23:35.022Z,99.90
2019-03-19T05:26:03.803Z,99.90
2019-03-19T05:28:32.602Z,99.90
2019-03-19T05:31:01.679Z,99.90
2019-03-19T05:33:30.468Z,99.90
2019-03-19T05:35:59.375Z,99.90
2019-03-19T05:38:28.423Z,99.90
2019-03-19T05:40:57.281Z,99.90
2019-03-19T05:43:26.087Z,99.90
2019-03-19T05:45:54.891Z,99.90
2019-03-19T05:48:23.704Z,99.90
2019-03-19T05:50:52.694Z,99.90
2019-03-19T05:53:21.511Z,99.90
2019-03-19T05:55:51.909Z,99.90
2019-03-19T05:58:20.740Z,99.90
2019-03-19T06:00:49.612Z,99.90
2019-03-19T06:03:18.467Z,99.90
2019-03-19T06:05:47.405Z,99.90
2019-03-19T06:08:16.322Z,99.90
2019-03-19T06:10:45.121Z,99.90
2019-03-19T06:13:14.240Z,99.90
2019-03-19T06:15:43.036Z,99.90
2019-03-19T06:18:12.107Z,99.90
2019-03-19T06:20:40.939Z,99.90
2019-03-19T06:23:09.978Z,99.90
2019-03-19T06:25:38.846Z,99.90
2019-03-19T06:28:07.834Z,99.90
2019-03-19T06:30:36.626Z,99.90
2019-03-19T06:33:05.635Z,99.90
2019-03-19T06:35:34.776Z,99.80
2019-03-19T06:38:03.674Z,99.60
2019-03-19T06:40:32.538Z,99.30
2019-03-19T06:43:01.571Z,99.10
2019-03-19T06:45:30.823Z,98.70
2019-03-19T06:47:59.627Z,98.00
2019-03-19T06:50:28.551Z,97.80
2019-03-19T06:52:57.394Z,97.60
2019-03-19T06:55:26.200Z,97.20
2019-03-19T06:57:55.202Z,97.10
2019-03-19T07:00:24.280Z,96.30
2019-03-19T07:02:53.357Z,96.50
2019-03-19T07:05:22.501Z,95.80
2019-03-19T07:07:51.401Z,95.60
2019-03-19T07:10:21.727Z,95.50
2019-03-19T07:12:50.915Z,95.30
2019-03-19T07:15:19.806Z,95.20
2019-03-19T07:17:49.060Z,95.30
2019-03-19T07:20:18.075Z,95.60
2019-03-19T07:22:47.018Z,95.80
2019-03-19T07:25:15.976Z,95.30
2019-03-19T07:27:45.265Z,95.10
2019-03-19T07:30:15.803Z,95.20
2019-03-19T07:32:45.090Z,94.80
2019-03-19T07:35:14.078Z,95.20
2019-03-19T07:37:42.986Z,93.70
2019-03-19T07:40:12.285Z,92.40
2019-03-19T07:42:41.355Z,91.20
2019-03-19T07:45:12.837Z,91.10
2019-03-19T07:47:41.891Z,90.90
2019-03-19T07:50:12.842Z,90.80
2019-03-19T07:52:41.802Z,90.40
2019-03-19T07:55:10.779Z,86.50
2019-03-19T07:57:39.818Z,86.20
2019-03-19T08:00:10.183Z,85.80
2019-03-19T08:02:38.980Z,84.80
2019-03-19T08:05:08.821Z,81.40
2019-03-19T08:07:37.775Z,80.40
2019-03-19T08:10:07.196Z,80.00
2019-03-19T08:12:36.150Z,77.60
2019-03-19T08:15:06.975Z,77.50
2019-03-19T08:17:36.369Z,72.80
2019-03-19T08:20:06.498Z,70.40
2019-03-19T08:22:35.385Z,69.90
2019-03-19T08:25:04.817Z,70.40
2019-03-19T08:27:33.734Z,67.50
2019-03-19T08:30:03.138Z,66.80
2019-03-19T08:32:31.927Z,65.50
2019-03-19T08:35:00.981Z,64.40
2019-03-19T08:37:29.862Z,62.80
2019-03-19T08:39:58.674Z,61.90
2019-03-19T08:42:27.595Z,61.70
2019-03-19T08:44:56.413Z,58.80
2019-03-19T08:47:25.306Z,59.80
2019-03-19T08:49:54.139Z,57.90
2019-03-19T08:52:23.059Z,57.10
2019-03-19T08:54:52.092Z,56.40
2019-03-19T08:57:20.895Z,55.90
2019-03-19T08:59:49.707Z,52.60
2019-03-19T09:02:18.774Z,52.30
2019-03-19T09:04:47.614Z,53.80
2019-03-19T09:07:16.507Z,50.60
2019-03-19T09:09:45.415Z,51.20
2019-03-19T09:13:14.699Z,51.00
2019-03-19T09:15:43.673Z,48.10
2019-03-19T09:18:12.524Z,48.70
2019-03-19T09:20:41.420Z,48.10
2019-03-19T09:23:10.362Z,48.30
2019-03-19T09:25:39.270Z,50.20
2019-03-19T09:28:08.074Z,52.00
2019-03-19T09:30:36.974Z,51.00
2019-03-19T09:33:05.887Z,51.10
2019-03-19T09:35:34.733Z,50.40
2019-03-19T09:38:03.711Z,48.20
2019-03-19T09:40:32.626Z,47.40
2019-03-19T09:43:01.804Z,46.20
2019-03-19T09:45:30.780Z,44.10
2019-03-19T09:47:59.684Z,46.90
2019-03-19T09:50:28.614Z,42.70
2019-03-19T09:52:57.465Z,43.40
2019-03-19T09:55:26.341Z,42.30
2019-03-19T09:57:55.232Z,43.40
2019-03-19T10:00:24.218Z,38.20
2019-03-19T10:02:53.286Z,39.90
2019-03-19T10:05:22.227Z,40.70
2019-03-19T10:07:51.082Z,41.50
2019-03-19T10:10:20.040Z,39.70
2019-03-19T10:12:48.900Z,40.10
2019-03-19T10:15:18.425Z,37.70
2019-03-19T10:17:47.350Z,36.80
2019-03-19T10:20:17.926Z,35.50
2019-03-19T10:22:47.099Z,35.10
2019-03-19T10:25:16.124Z,34.70
2019-03-19T10:27:45.091Z,35.80
2019-03-19T10:30:16.407Z,34.60
2019-03-19T10:32:45.523Z,38.90
2019-03-19T10:35:14.594Z,42.90
2019-03-19T10:37:43.559Z,46.10
2019-03-19T10:40:12.571Z,45.80
2019-03-19T10:42:41.440Z,45.90
2019-03-19T10:45:11.059Z,46.70
2019-03-19T10:47:40.139Z,48.50
2019-03-19T10:50:13.072Z,47.40
2019-03-19T10:52:41.880Z,45.70
2019-03-19T10:55:11.165Z,46.50
2019-03-19T10:57:40.132Z,49.30
2019-03-19T11:00:17.813Z,51.30
2019-03-19T11:02:46.854Z,50.30
2019-03-19T11:05:16.050Z,53.20
2019-03-19T11:07:45.011Z,55.80
2019-03-19T11:10:14.134Z,56.80
2019-03-19T11:12:43.386Z,55.70
2019-03-19T11:15:14.875Z,58.50
2019-03-19T11:17:43.806Z,57.90
2019-03-19T11:20:14.258Z,57.80
2019-03-19T11:22:43.132Z,59.90
2019-03-19T11:25:13.446Z,58.80
2019-03-19T11:27:42.323Z,58.90
2019-03-19T11:30:17.105Z,61.20
2019-03-19T11:32:46.011Z,60.10
2019-03-19T11:35:14.931Z,57.90
2019-03-19T11:37:43.801Z,59.20
2019-03-19T11:40:13.574Z,58.30
2019-03-19T11:42:42.500Z,56.70
2019-03-19T11:45:12.601Z,55.50
2019-03-19T11:47:41.459Z,54.90
2019-03-19T11:50:13.426Z,55.70
2019-03-19T11:52:42.347Z,51.20
2019-03-19T11:55:12.495Z,47.70
2019-03-19T11:57:41.560Z,43.10
2019-03-19T12:00:17.861Z,39.20
2019-03-19T12:02:46.686Z,39.30
2019-03-19T12:05:15.551Z,41.00
2019-03-19T12:07:44.486Z,44.80
2019-03-19T12:10:13.443Z,42.30
2019-03-19T12:12:42.310Z,43.50
2019-03-19T12:15:11.366Z,46.10
2019-03-19T12:17:40.298Z,47.20
2019-03-19T12:20:09.274Z,47.90
2019-03-19T12:22:38.147Z,47.50
2019-03-19T12:25:07.159Z,47.00
2019-03-19T12:27:36.027Z,48.80
2019-03-19T12:30:05.922Z,47.70
2019-03-19T12:32:34.795Z,49.50
2019-03-19T12:35:03.867Z,48.10
2019-03-19T12:37:32.847Z,48.40
2019-03-19T12:40:01.653Z,48.80
2019-03-19T12:42:30.447Z,47.90
2019-03-19T12:44:59.245Z,47.90
2019-03-19T12:47:28.030Z,47.60
2019-03-19T12:49:56.827Z,47.70
2019-03-19T12:52:25.766Z,43.50
2019-03-19T12:54:54.669Z,37.60
2019-03-19T12:57:23.585Z,36.90
2019-03-19T12:59:52.403Z,39.30
2019-03-19T13:02:21.200Z,40.70
2019-03-19T13:04:50.091Z,42.20
2019-03-19T13:07:18.994Z,44.60
2019-03-19T13:09:47.842Z,37.60
2019-03-19T13:12:16.694Z,36.30
2019-03-19T13:14:45.523Z,34.80
2019-03-19T13:17:14.478Z,29.10
2019-03-19T13:19:43.319Z,30.10
2019-03-19T13:22:12.622Z,30.80
2019-03-19T13:24:41.545Z,32.60
2019-03-19T13:27:10.649Z,29.00
2019-03-19T13:29:39.544Z,29.30
2019-03-19T13:32:08.486Z,26.20
2019-03-19T13:34:37.598Z,29.00
2019-03-19T13:37:06.481Z,30.00
2019-03-19T13:39:35.425Z,29.10
2019-03-19T13:42:04.445Z,30.50
2019-03-19T13:44:33.318Z,28.60
2019-03-19T13:47:02.237Z,28.50
2019-03-19T13:49:31.090Z,31.10
2019-03-19T13:52:00.174Z,35.70
2019-03-19T13:54:29.086Z,37.60
2019-03-19T13:56:58.283Z,36.60
2019-03-19T13:59:27.116Z,33.20
2019-03-19T14:01:56.095Z,31.30
2019-03-19T14:04:25.180Z,30.70
2019-03-19T14:06:54.048Z,31.10
2019-03-19T14:09:23.242Z,30.40
2019-03-19T14:11:52.118Z,30.90
2019-03-19T14:14:21.014Z,33.40
2019-03-19T14:16:50.095Z,32.00
2019-03-19T14:19:19.396Z,31.10
2019-03-19T14:21:48.222Z,31.60
2019-03-19T14:24:17.032Z,29.60
2019-03-19T14:26:45.922Z,28.70
2019-03-19T14:29:14.739Z,25.30
2019-03-19T14:31:43.591Z,27.90
2019-03-19T14:34:12.455Z,27.70
2019-03-19T14:36:41.281Z,26.50
2019-03-19T14:39:10.175Z,26.70
2019-03-19T14:41:39.114Z,25.00
2019-03-19T14:44:08.074Z,26.90
2019-03-19T14:46:37.142Z,27.90
2019-03-19T14:49:05.936Z,32.50
2019-03-19T14:51:34.772Z,34.90
2019-03-19T14:54:03.750Z,36.70
2019-03-19T14:56:32.667Z,37.30
2019-03-19T14:59:02.525Z,38.60
2019-03-19T15:01:31.396Z,39.40
2019-03-19T15:04:00.288Z,39.60
2019-03-19T15:06:29.701Z,40.60
2019-03-19T15:08:58.535Z,40.10
2019-03-19T15:11:27.319Z,36.50
2019-03-19T15:13:56.174Z,35.20
2019-03-19T15:16:25.062Z,32.30
2019-03-19T15:18:53.866Z,30.40
2019-03-19T15:21:22.751Z,30.90
2019-03-19T15:23:51.571Z,30.10
2019-03-19T15:26:20.384Z,32.30
2019-03-19T15:28:49.351Z,34.90
2019-03-19T15:31:18.178Z,36.90
2019-03-19T15:33:47.043Z,38.40
2019-03-19T15:36:15.966Z,38.40
2019-03-19T15:38:44.864Z,40.10
2019-03-19T15:41:13.748Z,41.00
2019-03-19T15:43:42.802Z,41.00
2019-03-19T15:46:11.619Z,42.70
2019-03-19T15:48:40.403Z,38.40
2019-03-19T15:51:09.244Z,35.90
2019-03-19T15:53:38.090Z,32.10
2019-03-19T15:56:07.234Z,30.90
2019-03-19T15:58:36.370Z,29.90
2019-03-19T16:01:05.512Z,29.80
2019-03-19T16:03:34.341Z,29.10
2019-03-19T16:06:03.431Z,28.10
2019-03-19T16:08:32.223Z,28.00
2019-03-19T16:11:01.040Z,28.60
2019-03-19T16:13:29.905Z,27.60
2019-03-19T16:15:58.844Z,28.70
2019-03-19T16:18:27.695Z,28.80
2019-03-19T16:20:56.538Z,28.80
2019-03-19T16:23:25.368Z,29.50
2019-03-19T16:25:54.230Z,29.20
2019-03-19T16:28:23.070Z,30.00
2019-03-19T16:30:51.874Z,32.60
2019-03-19T16:33:20.682Z,30.00
2019-03-19T16:35:49.489Z,30.70
2019-03-19T16:38:18.379Z,33.60
2019-03-19T16:40:47.211Z,36.10
2019-03-19T16:43:16.024Z,35.80
2019-03-19T16:45:44.928Z,35.20
2019-03-19T16:48:13.832Z,37.30
2019-03-19T16:50:42.635Z,39.10
2019-03-19T16:53:11.498Z,39.40
2019-03-19T16:55:40.371Z,41.10
2019-03-19T16:58:09.239Z,42.20
2019-03-19T17:00:38.129Z,41.50
2019-03-19T17:03:06.987Z,41.50
2019-03-19T17:05:35.785Z,42.90
2019-03-19T17:08:04.762Z,44.70
2019-03-19T17:10:33.550Z,44.20
2019-03-19T17:13:02.734Z,44.40
2019-03-19T17:15:31.587Z,45.40
2019-03-19T17:18:00.537Z,44.60
2019-03-19T17:20:29.433Z,46.90
2019-03-19T17:22:58.475Z,46.30
2019-03-19T17:25:27.468Z,47.20
2019-03-19T17:27:56.300Z,50.30
2019-03-19T17:30:25.186Z,50.10
2019-03-19T17:32:54.041Z,49.80
2019-03-19T17:35:23.366Z,51.00
2019-03-19T17:37:52.360Z,51.40
2019-03-19T17:40:21.324Z,51.20
2019-03-19T17:42:50.222Z,52.20
2019-03-19T17:45:19.232Z,52.90
2019-03-19T17:47:48.258Z,52.80
2019-03-19T17:50:18.573Z,54.90
2019-03-19T17:52:48.145Z,56.40
2019-03-19T17:55:17.098Z,56.90
2019-03-19T17:57:46.559Z,56.00
2019-03-19T18:00:19.619Z,56.30
2019-03-19T18:02:48.522Z,56.00
2019-03-19T18:05:17.525Z,58.70
2019-03-19T18:07:46.628Z,60.50
2019-03-19T18:10:15.701Z,60.30
2019-03-19T18:12:44.564Z,59.80
2019-03-19T18:15:13.551Z,59.60
2019-03-19T18:17:42.503Z,59.30
2019-03-19T18:20:11.658Z,59.80
2019-03-19T18:22:40.561Z,59.10
2019-03-19T18:25:09.630Z,59.90
2019-03-19T18:27:38.853Z,58.70
2019-03-19T18:30:09.432Z,59.80
2019-03-19T18:32:38.343Z,60.70
2019-03-19T18:35:19.063Z,60.80
2019-03-19T18:37:47.978Z,61.20
2019-03-19T18:40:16.914Z,61.00
2019-03-19T18:42:45.913Z,60.60
2019-03-19T18:45:14.949Z,61.40
2019-03-19T18:47:43.874Z,62.80
2019-03-19T18:50:13.753Z,64.60
2019-03-19T18:52:42.622Z,64.10
2019-03-19T18:55:11.869Z,62.70
2019-03-19T18:57:41.727Z,63.80
2019-03-19T19:00:15.014Z,63.30
2019-03-19T19:02:49.875Z,63.00
2019-03-19T19:05:17.322Z,64.20
2019-03-19T19:07:46.279Z,64.70
2019-03-19T19:10:15.442Z,65.30
2019-03-19T19:12:44.378Z,65.60
2019-03-19T19:15:14.569Z,66.80
2019-03-19T19:17:43.552Z,68.00
2019-03-19T19:20:14.025Z,70.00
2019-03-19T19:22:43.032Z,69.60
2019-03-19T19:25:13.044Z,70.10
2019-03-19T19:27:41.922Z,70.70
2019-03-19T19:30:13.515Z,72.00
2019-03-19T19:32:42.334Z,72.30
2019-03-19T19:35:11.237Z,73.10
2019-03-19T19:37:40.068Z,73.60
2019-03-19T19:40:12.710Z,74.10
2019-03-19T19:42:41.923Z,74.00
2019-03-19T19:45:11.630Z,74.40
2019-03-19T19:47:44.230Z,75.30
2019-03-19T19:50:14.166Z,75.30
2019-03-19T19:52:43.455Z,75.60
2019-03-19T19:55:12.702Z,77.60
2019-03-19T19:57:41.599Z,77.40
2019-03-19T20:00:12.771Z,77.50
2019-03-19T20:02:42.001Z,78.10
2019-03-19T20:05:10.989Z,77.90
2019-03-19T20:07:39.813Z,78.70
2019-03-19T20:10:11.421Z,77.80
2019-03-19T20:12:40.391Z,78.30
2019-03-19T20:15:09.637Z,79.00
2019-03-19T20:17:38.582Z,80.00
2019-03-19T20:20:09.418Z,80.90
2019-03-19T20:22:38.510Z,80.90
2019-03-19T20:25:07.610Z,81.30
2019-03-19T20:27:36.559Z,82.30
2019-03-19T20:30:07.379Z,81.40
2019-03-19T20:32:36.306Z,82.50
2019-03-19T20:35:06.583Z,83.60
2019-03-19T20:37:35.426Z,82.70
2019-03-19T20:40:04.842Z,82.70
2019-03-19T20:42:33.989Z,83.00
2019-03-19T20:45:02.934Z,83.90
2019-03-19T20:47:32.198Z,84.30
2019-03-19T20:50:01.052Z,84.00
2019-03-19T20:52:49.046Z,83.70
2019-03-19T20:55:18.015Z,83.10
2019-03-19T20:57:46.875Z,83.20
2019-03-19T21:00:16.414Z,82.80
2019-03-19T21:02:45.402Z,83.20
2019-03-19T21:05:14.524Z,83.10
2019-03-19T21:07:43.394Z,83.80
2019-03-19T21:10:17.842Z,85.10
2019-03-19T21:12:46.891Z,86.40
2019-03-19T21:15:17.690Z,85.60
2019-03-19T21:17:46.926Z,85.10
2019-03-19T21:20:16.043Z,85.30
2019-03-19T21:22:45.048Z,85.60
2019-03-19T21:25:14.031Z,85.90
2019-03-19T21:27:42.922Z,86.10
2019-03-19T21:30:11.977Z,87.00
2019-03-19T21:32:40.989Z,87.40
2019-03-19T21:35:09.903Z,88.20
2019-03-19T21:37:38.953Z,89.20
2019-03-19T21:40:10.846Z,89.50
2019-03-19T21:42:40.033Z,90.10
2019-03-19T21:45:09.865Z,89.50
2019-03-19T21:47:38.769Z,88.90
2019-03-19T21:50:09.733Z,88.20
2019-03-19T21:52:39.034Z,87.50
2019-03-19T21:55:08.198Z,87.40
2019-03-19T21:57:37.092Z,88.90
2019-03-19T22:00:07.878Z,89.80
2019-03-19T22:02:36.756Z,89.90
2019-03-19T22:05:06.181Z,90.10
2019-03-19T22:07:35.075Z,90.10
2019-03-19T22:10:04.515Z,90.50
2019-03-19T22:12:33.327Z,91.10
2019-03-19T22:15:02.520Z,91.10
2019-03-19T22:17:31.407Z,91.20
2019-03-19T22:20:00.326Z,91.40
2019-03-19T22:22:29.211Z,91.70
2019-03-19T22:24:58.348Z,91.60
2019-03-19T22:27:27.179Z,91.30
2019-03-19T22:29:56.044Z,91.20
2019-03-19T22:32:24.947Z,91.30
2019-03-19T22:34:53.766Z,91.50
2019-03-19T22:37:23.156Z,91.40
2019-03-19T22:39:52.065Z,91.20
2019-03-19T22:42:21.063Z,91.20
2019-03-19T22:44:49.961Z,91.40
2019-03-19T22:47:18.802Z,91.60
2019-03-19T22:49:47.719Z,91.70
2019-03-19T22:52:17.083Z,91.80
2019-03-19T22:54:45.946Z,91.70
2019-03-19T22:57:14.755Z,92.30
2019-03-19T22:59:44.593Z,92.30
2019-03-19T23:02:13.667Z,92.50
2019-03-19T23:04:42.494Z,92.60
2019-03-19T23:07:11.397Z,92.80
2019-03-19T23:09:40.581Z,93.00
2019-03-19T23:12:09.570Z,93.20
2019-03-19T23:14:41.075Z,93.40
2019-03-19T23:17:10.001Z,93.60
2019-03-19T23:19:38.966Z,94.00
2019-03-19T23:22:07.819Z,94.20
2019-03-19T23:24:36.619Z,94.40
2019-03-19T23:27:05.643Z,94.60
2019-03-19T23:29:34.531Z,94.60
2019-03-19T23:32:03.414Z,94.60
2019-03-19T23:34:38.447Z,94.50
2019-03-19T23:37:02.967Z,94.50
2019-03-19T23:39:31.750Z,94.50
2019-03-19T23:42:00.614Z,94.40
2019-03-19T23:44:29.430Z,94.70
2019-03-19T23:46:59.228Z,94.90
2019-03-19T23:49:28.098Z,95.00
2019-03-19T23:51:57.023Z,95.20
2019-03-19T23:54:25.859Z,95.50
2019-03-19T23:56:54.652Z,95.70
2019-03-19T23:59:23.476Z,95.50
